Time,TemperatureF,DewpointF,PressureIn,WindDirection,WindDirectionDegrees,WindSpeedMPH,WindSpeedGustMPH,Humidity,HourlyPrecipIn,Conditions,Clouds,dailyrainin,SoftwareType,DateUTC
2013-03-06 00:00:00,63.7,53.3,29.74,SW,225,3.8,3.8,69,0.00,,---,0.00,VWS V13.01,2013-03-06 05:00:00,
2013-03-06 00:10:00,63.5,53.2,29.73,West,270,1.1,10.5,69,0.00,,---,0.00,VWS V13.01,2013-03-06 05:10:00,
2013-03-06 00:15:00,63.5,53.2,29.73,West,270,12.3,12.3,69,0.00,,---,0.00,VWS V13.01,2013-03-06 05:15:00,
2013-03-06 00:20:00,63.3,53.0,29.73,West,270,1.1,12.3,69,0.00,,---,0.00,VWS V13.01,2013-03-06 05:20:00,
2013-03-06 00:25:00,63.1,52.8,29.73,West,270,11.0,11.0,69,0.00,,---,0.00,VWS V13.01,2013-03-06 05:25:00,
2013-03-06 00:35:00,63.1,52.8,29.73,West,270,13.6,20.4,69,0.00,,---,0.00,VWS V13.01,2013-03-06 05:35:00,
2013-03-06 00:40:00,63.0,52.6,29.73,West,270,13.2,13.6,69,0.00,,---,0.00,VWS V13.01,2013-03-06 05:40:00,
2013-03-06 00:50:00,63.0,53.0,29.73,WSW,248,1.6,13.2,70,0.00,,---,0.00,VWS V13.01,2013-03-06 05:50:00,
2013-03-06 01:00:00,62.8,52.9,29.73,WSW,248,1.1,1.1,70,0.00,,---,0.00,VWS V13.01,2013-03-06 06:00:00,
2013-03-06 01:10:00,62.6,52.7,29.73,WSW,248,0.0,17.7,70,0.00,,---,0.00,VWS V13.01,2013-03-06 06:10:00,
2013-03-06 01:15:00,62.6,52.7,29.73,WSW,248,19.9,19.9,70,0.00,,---,0.00,VWS V13.01,2013-03-06 06:15:00,
2013-03-06 01:25:00,62.4,52.5,29.73,WSW,248,17.0,17.0,70,0.00,,---,0.00,VWS V13.01,2013-03-06 06:25:00,
2013-03-06 01:35:00,62.2,52.3,29.72,WSW,248,9.2,14.1,70,0.00,,---,0.00,VWS V13.01,2013-03-06 06:35:00,
2013-03-06 01:45:00,61.9,52.0,29.71,SW,225,0.0,12.5,70,0.00,,---,0.00,VWS V13.01,2013-03-06 06:45:00,
2013-03-06 01:50:00,61.7,51.8,29.71,WSW,248,3.1,3.1,70,0.00,,---,0.00,VWS V13.01,2013-03-06 06:50:00,
2013-03-06 02:00:00,61.7,52.2,29.71,WSW,248,1.1,8.7,71,0.00,,---,0.00,VWS V13.01,2013-03-06 07:00:00,
2013-03-06 02:10:00,61.5,52.0,29.70,SW,225,1.6,1.6,71,0.00,,---,0.00,VWS V13.01,2013-03-06 07:10:00,
2013-03-06 02:15:00,61.5,52.0,29.69,SSW,202,9.4,9.4,71,0.00,,---,0.00,VWS V13.01,2013-03-06 07:15:00,
2013-03-06 02:25:00,61.5,52.4,29.69,WSW,248,0.9,2.0,72,0.00,,---,0.00,VWS V13.01,2013-03-06 07:25:00,
2013-03-06 02:35:00,61.5,52.4,29.68,SW,225,2.7,2.7,72,0.00,,---,0.00,VWS V13.01,2013-03-06 07:35:00,
2013-03-06 02:45:00,61.3,52.6,29.68,WSW,248,1.3,2.9,73,0.00,,---,0.00,VWS V13.01,2013-03-06 07:45:00,
2013-03-06 02:55:00,61.2,52.8,29.67,West,270,0.4,3.1,74,0.00,,---,0.00,VWS V13.01,2013-03-06 07:55:00,
2013-03-06 03:00:00,61.0,52.7,29.67,WSW,248,12.3,12.3,74,0.00,,---,0.00,VWS V13.01,2013-03-06 08:00:00,
2013-03-06 03:10:00,61.0,52.7,29.67,WSW,248,2.0,2.0,74,0.00,,---,0.00,VWS V13.01,2013-03-06 08:10:00,
2013-03-06 03:20:00,60.6,52.3,29.67,WSW,248,3.4,3.4,74,0.00,,---,0.00,VWS V13.01,2013-03-06 08:20:00,
2013-03-06 03:25:00,60.6,52.3,29.67,WSW,248,3.6,3.6,74,0.00,,---,0.00,VWS V13.01,2013-03-06 08:25:00,
2013-03-06 03:35:00,60.6,52.7,29.67,WSW,248,2.9,3.4,75,0.00,,---,0.00,VWS V13.01,2013-03-06 08:35:00,
2013-03-06 03:45:00,60.6,52.7,29.67,SW,225,2.2,2.2,75,0.00,,---,0.00,VWS V13.01,2013-03-06 08:45:00,
2013-03-06 03:50:00,60.6,52.7,29.67,WSW,248,6.0,6.0,75,0.00,,---,0.00,VWS V13.01,2013-03-06 08:50:00,
2013-03-06 04:00:00,60.4,52.5,29.66,SW,225,2.2,5.1,75,0.00,,---,0.00,VWS V13.01,2013-03-06 09:00:00,
2013-03-06 04:10:00,60.4,52.5,29.67,WSW,248,1.8,2.2,75,0.00,,---,0.00,VWS V13.01,2013-03-06 09:10:00,
2013-03-06 04:20:00,60.4,52.8,29.67,WSW,248,2.5,4.3,76,0.00,,---,0.00,VWS V13.01,2013-03-06 09:20:00,
2013-03-06 04:30:00,60.3,52.3,29.67,WSW,248,0.0,22.2,75,0.00,,---,0.00,VWS V13.01,2013-03-06 09:30:00,
2013-03-06 04:40:00,60.1,52.1,29.67,WSW,248,0.0,0.4,75,0.00,,---,0.00,VWS V13.01,2013-03-06 09:40:00,
2013-03-06 04:50:00,60.1,52.1,29.68,WSW,248,0.0,0.0,75,0.00,,---,0.00,VWS V13.01,2013-03-06 09:50:00,
2013-03-06 05:00:00,59.5,51.6,29.68,West,270,2.0,12.1,75,0.00,,---,0.00,VWS V13.01,2013-03-06 10:00:00,
2013-03-06 05:10:00,59.2,51.3,29.68,West,270,10.7,10.7,75,0.00,,---,0.00,VWS V13.01,2013-03-06 10:10:00,
2013-03-06 05:15:00,59.0,51.1,29.68,West,270,0.0,10.7,75,0.00,,---,0.00,VWS V13.01,2013-03-06 10:15:00,
2013-03-06 05:25:00,58.8,50.9,29.69,West,270,0.0,0.0,75,0.00,,---,0.00,VWS V13.01,2013-03-06 10:25:00,
2013-03-06 05:30:00,58.8,51.3,29.69,West,270,0.0,0.0,76,0.00,,---,0.00,VWS V13.01,2013-03-06 10:30:00,
2013-03-06 05:40:00,58.8,51.3,29.69,West,270,0.0,0.4,76,0.00,,---,0.00,VWS V13.01,2013-03-06 10:40:00,
2013-03-06 05:50:00,58.8,51.6,29.69,WSW,248,7.6,7.6,77,0.00,,---,0.00,VWS V13.01,2013-03-06 10:50:00,
2013-03-06 06:00:00,58.6,51.5,29.69,WSW,248,0.0,11.0,77,0.00,,---,0.00,VWS V13.01,2013-03-06 11:00:00,
2013-03-06 06:10:00,58.8,51.6,29.69,SW,225,2.7,2.7,77,0.00,,---,0.00,VWS V13.01,2013-03-06 11:10:00,
2013-03-06 06:15:00,58.8,51.6,29.69,WSW,248,2.7,2.7,77,0.00,,---,0.00,VWS V13.01,2013-03-06 11:15:00,
2013-03-06 06:25:00,58.8,52.0,29.69,WSW,248,5.6,5.6,78,0.00,,---,0.00,VWS V13.01,2013-03-06 11:25:00,
2013-03-06 06:35:00,58.8,52.0,29.69,West,270,2.5,4.7,78,0.00,,---,0.00,VWS V13.01,2013-03-06 11:35:00,
2013-03-06 06:45:00,58.8,52.3,29.69,West,270,1.6,3.1,79,0.00,,---,0.00,VWS V13.01,2013-03-06 11:45:00,
2013-03-06 06:55:00,59.2,52.3,29.69,WSW,248,19.5,19.5,78,0.00,,---,0.00,VWS V13.01,2013-03-06 11:55:00,
2013-03-06 07:05:00,59.4,52.5,29.70,SW,225,11.2,11.2,78,0.00,,---,0.00,VWS V13.01,2013-03-06 12:05:00,
2013-03-06 07:15:00,59.7,53.2,29.70,SW,225,3.6,6.3,79,0.00,,---,0.00,VWS V13.01,2013-03-06 12:15:00,
2013-03-06 07:20:00,60.1,53.6,29.70,SW,225,2.5,3.6,79,0.00,,---,0.00,VWS V13.01,2013-03-06 12:20:00,
2013-03-06 07:25:00,60.4,53.9,29.70,WSW,248,2.9,2.9,79,0.00,,---,0.00,VWS V13.01,2013-03-06 12:25:00,
2013-03-06 07:35:00,61.2,54.6,29.70,West,270,2.5,6.0,79,0.00,,---,0.00,VWS V13.01,2013-03-06 12:35:00,
2013-03-06 07:45:00,61.7,54.8,29.71,West,270,1.8,6.0,78,0.00,,---,0.00,VWS V13.01,2013-03-06 12:45:00,
2013-03-06 07:55:00,62.2,55.3,29.71,West,270,7.2,7.2,78,0.00,,---,0.00,VWS V13.01,2013-03-06 12:55:00,
2013-03-06 08:05:00,63.5,56.2,29.71,WSW,248,7.4,7.4,77,0.00,,---,0.00,VWS V13.01,2013-03-06 13:05:00,
2013-03-06 08:15:00,64.2,56.5,29.71,West,270,3.8,5.8,76,0.00,,---,0.00,VWS V13.01,2013-03-06 13:15:00,
2013-03-06 08:25:00,64.6,56.5,29.71,West,270,4.5,4.5,75,0.00,,---,0.00,VWS V13.01,2013-03-06 13:25:00,
2013-03-06 08:30:00,65.5,57.0,29.71,West,270,8.5,14.5,74,0.00,,---,0.00,VWS V13.01,2013-03-06 13:30:00,
2013-03-06 08:40:00,66.2,57.7,29.70,West,270,2.2,5.1,74,0.00,,---,0.00,VWS V13.01,2013-03-06 13:40:00,
2013-03-06 08:45:00,66.6,57.3,29.71,WSW,248,13.2,13.2,72,0.00,,---,0.00,VWS V13.01,2013-03-06 13:45:00,
2013-03-06 08:55:00,67.3,57.6,29.71,West,270,4.7,5.6,71,0.00,,---,0.00,VWS V13.01,2013-03-06 13:55:00,
2013-03-06 09:05:00,68.2,57.6,29.71,NNW,338,5.8,8.1,69,0.00,,---,0.00,VWS V13.01,2013-03-06 14:05:00,
2013-03-06 09:15:00,69.1,58.1,29.71,West,270,4.5,8.7,68,0.00,,---,0.00,VWS V13.01,2013-03-06 14:15:00,
2013-03-06 09:20:00,69.1,58.1,29.71,West,270,6.3,6.3,68,0.00,,---,0.00,VWS V13.01,2013-03-06 14:20:00,
2013-03-06 09:25:00,69.6,57.8,29.71,West,270,8.7,11.0,66,0.00,,---,0.00,VWS V13.01,2013-03-06 14:25:00,
2013-03-06 09:35:00,70.7,58.8,29.70,West,270,2.7,14.8,66,0.00,,---,0.00,VWS V13.01,2013-03-06 14:35:00,
2013-03-06 09:40:00,70.9,58.5,29.70,WSW,248,7.4,9.6,65,0.00,,---,0.00,VWS V13.01,2013-03-06 14:40:00,
2013-03-06 09:50:00,71.2,58.9,29.70,WSW,248,10.1,10.1,65,0.00,,---,0.00,VWS V13.01,2013-03-06 14:50:00,
2013-03-06 09:55:00,71.2,58.5,29.70,WSW,248,8.3,10.1,64,0.00,,---,0.00,VWS V13.01,2013-03-06 14:55:00,
2013-03-06 10:05:00,72.5,59.2,29.70,West,270,6.7,11.6,63,0.00,,---,0.00,VWS V13.01,2013-03-06 15:05:00,
2013-03-06 10:15:00,72.7,58.9,29.70,SW,225,9.8,9.8,62,0.00,,---,0.00,VWS V13.01,2013-03-06 15:15:00,
2013-03-06 10:25:00,72.7,58.9,29.71,West,270,7.8,11.4,62,0.00,,---,0.00,VWS V13.01,2013-03-06 15:25:00,
2013-03-06 10:35:00,72.3,58.6,29.71,WNW,292,5.4,6.5,62,0.00,,---,0.00,VWS V13.01,2013-03-06 15:35:00,
2013-03-06 10:45:00,72.1,58.9,29.70,West,270,11.4,11.4,63,0.00,,---,0.00,VWS V13.01,2013-03-06 15:45:00,
2013-03-06 10:55:00,71.2,58.9,29.70,West,270,5.4,5.4,65,0.00,,---,0.00,VWS V13.01,2013-03-06 15:55:00,
2013-03-06 11:05:00,71.4,59.0,29.70,WSW,248,8.1,8.1,65,0.00,,---,0.00,VWS V13.01,2013-03-06 16:05:00,
2013-03-06 11:15:00,71.8,59.4,29.70,West,270,7.4,7.8,65,0.00,,---,0.00,VWS V13.01,2013-03-06 16:15:00,
2013-03-06 11:20:00,71.8,59.4,29.70,West,270,7.4,7.4,65,0.00,,---,0.00,VWS V13.01,2013-03-06 16:20:00,
2013-03-06 11:25:00,72.3,59.5,29.70,West,270,13.2,13.2,64,0.00,,---,0.00,VWS V13.01,2013-03-06 16:25:00,
2013-03-06 11:35:00,73.0,60.2,29.69,West,270,5.8,11.0,64,0.00,,---,0.00,VWS V13.01,2013-03-06 16:35:00,
2013-03-06 11:40:00,72.9,59.5,29.69,West,270,8.3,8.3,63,0.00,,---,0.00,VWS V13.01,2013-03-06 16:40:00,
2013-03-06 11:50:00,72.3,59.0,29.69,WNW,292,0.0,7.6,63,0.00,,---,0.00,VWS V13.01,2013-03-06 16:50:00,
2013-03-06 12:00:00,72.1,59.3,29.69,West,270,0.7,7.8,64,0.00,,---,0.00,VWS V13.01,2013-03-06 17:00:00,
2013-03-06 12:10:00,72.0,59.1,29.69,WNW,292,0.9,0.9,64,0.00,,---,0.00,VWS V13.01,2013-03-06 17:10:00,
2013-03-06 12:15:00,72.0,60.0,29.69,WNW,292,8.3,8.3,66,0.00,,---,0.00,VWS V13.01,2013-03-06 17:15:00,
2013-03-06 12:25:00,71.8,60.2,29.69,North,0,2.0,3.4,67,0.00,,---,0.00,VWS V13.01,2013-03-06 17:25:00,
2013-03-06 12:30:00,71.4,59.9,29.69,NW,315,6.0,6.9,67,0.00,,---,0.00,VWS V13.01,2013-03-06 17:30:00,
2013-03-06 12:40:00,71.2,60.2,29.68,West,270,11.4,11.4,68,0.00,,---,0.00,VWS V13.01,2013-03-06 17:40:00,
2013-03-06 12:50:00,70.3,60.1,29.68,WNW,292,3.1,3.6,70,0.00,,---,0.00,VWS V13.01,2013-03-06 17:50:00,
2013-03-06 12:55:00,70.3,60.1,29.67,WNW,292,3.1,3.1,70,0.00,,---,0.00,VWS V13.01,2013-03-06 17:55:00,
2013-03-06 13:05:00,71.2,60.6,29.67,SW,225,0.7,3.4,69,0.00,,---,0.00,VWS V13.01,2013-03-06 18:05:00,
2013-03-06 13:15:00,71.8,60.7,29.66,WSW,248,4.7,6.9,68,0.00,,---,0.00,VWS V13.01,2013-03-06 18:15:00,
2013-03-06 13:20:00,72.5,60.9,29.65,West,270,2.0,4.7,67,0.00,,---,0.00,VWS V13.01,2013-03-06 18:20:00,
2013-03-06 13:30:00,73.8,61.3,29.65,WSW,248,2.0,5.1,65,0.00,,---,0.00,VWS V13.01,2013-03-06 18:30:00,
2013-03-06 13:40:00,74.8,61.4,29.64,West,270,6.3,7.4,63,0.00,,---,0.00,VWS V13.01,2013-03-06 18:40:00,
2013-03-06 13:45:00,75.4,61.0,29.64,SW,225,4.5,6.3,61,0.00,,---,0.00,VWS V13.01,2013-03-06 18:45:00,
2013-03-06 13:55:00,76.3,60.9,29.63,West,270,6.0,7.6,59,0.00,,---,0.00,VWS V13.01,2013-03-06 18:55:00,
2013-03-06 14:00:00,76.6,61.2,29.63,WNW,292,10.5,10.5,59,0.00,,---,0.00,VWS V13.01,2013-03-06 19:00:00,
2013-03-06 14:10:00,76.8,60.5,29.62,West,270,2.9,8.7,57,0.00,,---,0.00,VWS V13.01,2013-03-06 19:10:00,
2013-03-06 14:20:00,77.2,59.8,29.62,WSW,248,6.7,6.7,55,0.00,,---,0.00,VWS V13.01,2013-03-06 19:20:00,
2013-03-06 14:30:00,77.9,59.9,29.62,WSW,248,18.1,18.1,54,0.00,,---,0.00,VWS V13.01,2013-03-06 19:30:00,
2013-03-06 14:35:00,77.9,58.9,29.62,WSW,248,4.9,18.1,52,0.00,,---,0.00,VWS V13.01,2013-03-06 19:35:00,
2013-03-06 14:45:00,78.1,58.5,29.61,WSW,248,17.2,17.2,51,0.00,,---,0.00,VWS V13.01,2013-03-06 19:45:00,
2013-03-06 14:55:00,78.1,59.0,29.60,WSW,248,10.5,10.5,52,0.00,,---,0.00,VWS V13.01,2013-03-06 19:55:00,
2013-03-06 15:05:00,78.4,58.3,29.60,WSW,248,3.4,5.6,50,0.00,,---,0.00,VWS V13.01,2013-03-06 20:05:00,
2013-03-06 15:10:00,78.6,55.5,29.60,WSW,248,6.5,7.6,45,0.00,,---,0.00,VWS V13.01,2013-03-06 20:10:00,
2013-03-06 15:15:00,78.6,54.9,29.60,WSW,248,2.7,7.4,44,0.00,,---,0.00,VWS V13.01,2013-03-06 20:15:00,
2013-03-06 15:25:00,79.2,57.2,29.60,WSW,248,4.3,13.6,47,0.00,,---,0.00,VWS V13.01,2013-03-06 20:25:00,
2013-03-06 15:30:00,79.2,56.6,29.60,WSW,248,4.9,8.7,46,0.00,,---,0.00,VWS V13.01,2013-03-06 20:30:00,
2013-03-06 15:40:00,79.0,55.8,29.60,WSW,248,4.7,7.8,45,0.00,,---,0.00,VWS V13.01,2013-03-06 20:40:00,
2013-03-06 15:45:00,78.8,55.1,29.59,WSW,248,2.0,8.1,44,0.00,,---,0.00,VWS V13.01,2013-03-06 20:45:00,
2013-03-06 15:55:00,78.8,54.4,29.59,WSW,248,6.0,6.0,43,0.00,,---,0.00,VWS V13.01,2013-03-06 20:55:00,
2013-03-06 16:05:00,78.8,53.1,29.59,WSW,248,14.5,14.5,41,0.00,,---,0.00,VWS V13.01,2013-03-06 21:05:00,
2013-03-06 16:10:00,78.6,53.0,29.59,WSW,248,6.3,18.3,41,0.00,,---,0.00,VWS V13.01,2013-03-06 21:10:00,
2013-03-06 16:20:00,78.6,53.0,29.60,WSW,248,12.1,12.1,41,0.00,,---,0.00,VWS V13.01,2013-03-06 21:20:00,
2013-03-06 16:25:00,78.6,52.3,29.60,WSW,248,10.7,12.1,40,0.00,,---,0.00,VWS V13.01,2013-03-06 21:25:00,
2013-03-06 16:35:00,78.4,52.1,29.59,WSW,248,6.7,6.7,40,0.00,,---,0.00,VWS V13.01,2013-03-06 21:35:00,
2013-03-06 16:45:00,78.1,51.8,29.60,WSW,248,6.5,10.7,40,0.00,,---,0.00,VWS V13.01,2013-03-06 21:45:00,
2013-03-06 16:55:00,77.7,49.4,29.60,WSW,248,5.8,8.3,37,0.00,,---,0.00,VWS V13.01,2013-03-06 21:55:00,
2013-03-06 17:05:00,77.5,49.2,29.60,WSW,248,3.4,9.0,37,0.00,,---,0.00,VWS V13.01,2013-03-06 22:05:00,
2013-03-06 17:10:00,77.2,48.9,29.60,WSW,248,4.7,6.5,37,0.00,,---,0.00,VWS V13.01,2013-03-06 22:10:00,
2013-03-06 17:20:00,76.5,45.2,29.61,WSW,248,3.1,7.4,33,0.00,,---,0.00,VWS V13.01,2013-03-06 22:20:00,
2013-03-06 17:30:00,75.6,43.7,29.62,WSW,248,8.3,8.3,32,0.00,,---,0.00,VWS V13.01,2013-03-06 22:30:00,
2013-03-06 17:35:00,75.0,44.8,29.62,WSW,248,4.5,4.5,34,0.00,,---,0.00,VWS V13.01,2013-03-06 22:35:00,
2013-03-06 17:40:00,74.8,44.6,29.62,WSW,248,1.3,5.4,34,0.00,,---,0.00,VWS V13.01,2013-03-06 22:40:00,
2013-03-06 17:50:00,73.9,43.8,29.63,NW,315,6.3,7.8,34,0.00,,---,0.00,VWS V13.01,2013-03-06 22:50:00,
2013-03-06 18:00:00,72.7,43.5,29.62,WNW,292,6.9,6.9,35,0.00,,---,0.00,VWS V13.01,2013-03-06 23:00:00,
2013-03-06 18:05:00,72.1,43.0,29.63,WNW,292,5.4,6.9,35,0.00,,---,0.00,VWS V13.01,2013-03-06 23:05:00,
2013-03-06 18:15:00,71.8,43.4,29.63,NW,315,7.2,7.2,36,0.00,,---,0.00,VWS V13.01,2013-03-06 23:15:00,
2013-03-06 18:20:00,71.8,43.4,29.63,NW,315,7.2,7.2,36,0.00,,---,0.00,VWS V13.01,2013-03-06 23:20:00,
2013-03-06 18:25:00,70.2,42.0,29.64,NW,315,1.8,7.2,36,0.00,,---,0.00,VWS V13.01,2013-03-06 23:25:00,
2013-03-06 18:35:00,69.8,41.7,29.64,WNW,292,4.0,4.0,36,0.00,,---,0.00,VWS V13.01,2013-03-06 23:35:00,
2013-03-06 18:40:00,68.9,40.9,29.65,NW,315,0.2,4.3,36,0.00,,---,0.00,VWS V13.01,2013-03-06 23:40:00,
2013-03-06 18:50:00,68.4,40.4,29.65,NNW,338,7.4,7.4,36,0.00,,---,0.00,VWS V13.01,2013-03-06 23:50:00,
2013-03-06 19:00:00,67.8,40.6,29.65,NW,315,3.6,3.6,37,0.00,,---,0.00,VWS V13.01,2013-03-07 00:00:00,
2013-03-06 19:05:00,67.6,40.5,29.66,NW,315,5.8,5.8,37,0.00,,---,0.00,VWS V13.01,2013-03-07 00:05:00,
2013-03-06 19:15:00,67.1,40.7,29.66,NW,315,0.4,5.1,38,0.00,,---,0.00,VWS V13.01,2013-03-07 00:15:00,
2013-03-06 19:20:00,66.7,40.3,29.66,WNW,292,1.1,2.7,38,0.00,,---,0.00,VWS V13.01,2013-03-07 00:20:00,
2013-03-06 19:25:00,66.4,37.9,29.67,NW,315,10.7,10.7,35,0.00,,---,0.00,VWS V13.01,2013-03-07 00:25:00,
2013-03-06 19:35:00,66.0,36.9,29.67,NW,315,1.8,8.7,34,0.00,,---,0.00,VWS V13.01,2013-03-07 00:35:00,
2013-03-06 19:40:00,65.8,35.2,29.68,WNW,292,3.1,3.1,32,0.00,,---,0.00,VWS V13.01,2013-03-07 00:40:00,
2013-03-06 19:45:00,65.3,34.7,29.67,NW,315,8.3,8.3,32,0.00,,---,0.00,VWS V13.01,2013-03-07 00:45:00,
2013-03-06 19:50:00,65.1,34.6,29.68,WNW,292,2.0,8.3,32,0.00,,---,0.00,VWS V13.01,2013-03-07 00:50:00,
2013-03-06 20:00:00,64.6,34.1,29.69,NNW,338,25.1,25.1,32,0.00,,---,0.00,VWS V13.01,2013-03-07 01:00:00,
2013-03-06 20:05:00,64.2,33.8,29.68,West,270,3.6,25.1,32,0.00,,---,0.00,VWS V13.01,2013-03-07 01:05:00,
2013-03-06 20:15:00,63.7,33.3,29.69,NW,315,9.4,14.1,32,0.00,,---,0.00,VWS V13.01,2013-03-07 01:15:00,
2013-03-06 20:25:00,63.3,33.0,29.69,WSW,248,4.7,4.7,32,0.00,,---,0.00,VWS V13.01,2013-03-07 01:25:00,
2013-03-06 20:30:00,63.1,33.6,29.69,WNW,292,6.9,6.9,33,0.00,,---,0.00,VWS V13.01,2013-03-07 01:30:00,
2013-03-06 20:40:00,62.8,34.0,29.69,NW,315,2.0,3.1,34,0.00,,---,0.00,VWS V13.01,2013-03-07 01:40:00,
2013-03-06 20:45:00,62.4,34.4,29.69,WNW,292,7.8,10.1,35,0.00,,---,0.00,VWS V13.01,2013-03-07 01:45:00,
2013-03-06 20:55:00,62.2,34.3,29.70,NNW,338,9.4,9.4,35,0.00,,---,0.00,VWS V13.01,2013-03-07 01:55:00,
2013-03-06 21:05:00,61.7,34.5,29.70,NW,315,1.3,8.3,36,0.00,,---,0.00,VWS V13.01,2013-03-07 02:05:00,
2013-03-06 21:10:00,61.7,34.5,29.70,NW,315,1.3,1.3,36,0.00,,---,0.00,VWS V13.01,2013-03-07 02:10:00,
2013-03-06 21:15:00,61.2,34.7,29.71,WSW,248,9.8,9.8,37,0.00,,---,0.00,VWS V13.01,2013-03-07 02:15:00,
2013-03-06 21:25:00,60.6,34.9,29.71,NW,315,4.9,4.9,38,0.00,,---,0.00,VWS V13.01,2013-03-07 02:25:00,
2013-03-06 21:30:00,60.4,35.4,29.72,NW,315,6.9,6.9,39,0.00,,---,0.00,VWS V13.01,2013-03-07 02:30:00,
2013-03-06 21:40:00,60.1,35.7,29.72,North,0,5.4,9.6,40,0.00,,---,0.00,VWS V13.01,2013-03-07 02:40:00,
2013-03-06 21:50:00,59.5,35.8,29.72,West,270,1.8,4.9,41,0.00,,---,0.00,VWS V13.01,2013-03-07 02:50:00,
2013-03-06 21:55:00,59.5,36.5,29.72,WNW,292,1.3,3.6,42,0.00,,---,0.00,VWS V13.01,2013-03-07 02:55:00,
2013-03-06 22:05:00,59.2,36.1,29.73,West,270,1.3,5.8,42,0.00,,---,0.00,VWS V13.01,2013-03-07 03:05:00,
2013-03-06 22:15:00,58.8,36.4,29.73,WNW,292,1.3,3.4,43,0.00,,---,0.00,VWS V13.01,2013-03-07 03:15:00,
2013-03-06 22:20:00,58.8,36.4,29.73,WNW,292,1.3,1.3,43,0.00,,---,0.00,VWS V13.01,2013-03-07 03:20:00,
2013-03-06 22:30:00,57.9,36.7,29.73,WNW,292,4.0,8.7,45,0.00,,---,0.00,VWS V13.01,2013-03-07 03:30:00,
2013-03-06 22:40:00,57.6,37.0,29.73,NNW,338,3.8,7.6,46,0.00,,---,0.00,VWS V13.01,2013-03-07 03:40:00,
2013-03-06 22:50:00,57.0,37.5,29.74,West,270,1.8,15.0,48,0.00,,---,0.00,VWS V13.01,2013-03-07 03:50:00,
2013-03-06 22:55:00,57.0,38.1,29.74,NW,315,3.8,6.5,49,0.00,,---,0.00,VWS V13.01,2013-03-07 03:55:00,
2013-03-06 23:05:00,56.8,38.4,29.74,NNW,338,0.4,5.1,50,0.00,,---,0.00,VWS V13.01,2013-03-07 04:05:00,
2013-03-06 23:15:00,56.5,38.6,29.74,NW,315,0.9,8.7,51,0.00,,---,0.00,VWS V13.01,2013-03-07 04:15:00,
2013-03-06 23:25:00,56.1,38.8,29.74,NNW,338,2.5,4.9,52,0.00,,---,0.00,VWS V13.01,2013-03-07 04:25:00,
2013-03-06 23:30:00,55.9,38.6,29.74,WNW,292,3.1,3.1,52,0.00,,---,0.00,VWS V13.01,2013-03-07 04:30:00,
2013-03-06 23:40:00,55.8,38.4,29.74,WNW,292,4.0,4.0,52,0.00,,---,0.00,VWS V13.01,2013-03-07 04:40:00,
2013-03-06 23:50:00,55.4,38.6,29.75,WNW,292,2.2,2.2,53,0.00,,---,0.00,VWS V13.01,2013-03-07 04:50:00,